• Join FlightAware (Why Join?)
  • Login
  • US Flag 
03:12PM EDT


 

Airport Tracker/Info


-or-


 

Live Flight TrackerFlight Track Log ✈ CTL18 ✈ 10 Jul 2013 ✈ KYIP - KBKL

Flight Track Log - Related Links

Times and Time Zones

All times are in EDT time to prevent confusion due to time zone crossing. See the CTL18 flight status page for this flight to view local times or setup timezone preferences in your user account.

Time Position Orientation Groundspeed Altitude Reporting Facility
EDT Latitude Longitude Course Direction KTS MPH feet Rate Location/Type
08:52PM 42.2653 -83.5658 298° West 118 136 2,000  Level Cleveland Center
08:53PM 42.2806 -83.6114 294° West 132 152 3,000 720 Climbing Cleveland Center
08:54PM 42.2531 -83.6269 203° Southwest 171 197 3,500 660 Climbing Cleveland Center
08:55PM 42.2486 -83.5650 96° East 147 169 4,400 660 Climbing Cleveland Center
08:56PM 42.2331 -83.5139 112° Southeast 151 174 5,000 300 Climbing Cleveland Center
08:57PM 42.2114 -83.4650 121° Southeast 177 204 5,000  Level Cleveland Center
08:58PM 42.1942 -83.4000 110° East 178 205 5,000  Level Cleveland Center
08:59PM 42.1728 -83.3372 115° Southeast 178 205 5,000  Level Cleveland Center
09:00PM 42.1533 -83.2833 116° Southeast 173 199 5,000  Level Cleveland Center
09:01PM 42.1297 -83.2206 117° Southeast 174 200 5,000  Level Cleveland Center
09:02PM 42.1058 -83.1664 121° Southeast 171 197 5,000  Level Cleveland Center
09:03PM 42.0842 -83.1125 118° Southeast 172 198 5,100  Climbing Cleveland Center
09:04PM 42.0625 -83.0528 116° Southeast 178 205 5,000 -60 Descending Cleveland Center
09:05PM 42.0408 -82.9961 117° Southeast 185 213 5,000  Level Cleveland Center
09:06PM 42.0150 -82.9419 123° Southeast 182 209 5,000  Level Cleveland Center
09:07PM 41.9972 -82.8856 113° Southeast 182 209 5,000  Level Cleveland Center
09:08PM 41.9714 -82.8231 119° Southeast 182 209 5,000 60 Level Cleveland Center
09:09PM 41.9533 -82.7889 125° Southeast 181 208 5,100 120 Climbing Cleveland Center
09:10PM 41.9317 -82.7267 115° Southeast 180 207 5,200  Climbing Cleveland Center
09:11PM 41.9097 -82.6647 115° Southeast 183 211 5,100 -60 Descending Cleveland Center
09:12PM 41.8817 -82.6050 122° Southeast 175 201 5,100 -300 Level Cleveland Center
09:13PM 41.8558 -82.5375 117° Southeast 159 183 4,400 -720 Descending Cleveland Center
09:14PM 41.8397 -82.4922 116° Southeast 145 167 3,600 -720 Descending Cleveland Center
09:15PM 41.8197 -82.4444 119° Southeast 152 175 3,100 -240 Descending Cleveland Center
09:16PM 41.7978 -82.3908 119° Southeast 135 155 3,100  Level Cleveland Center
09:17PM 41.7775 -82.3428 119° Southeast 160 184 3,100  Level Cleveland Center
09:18PM 41.7575 -82.2867 116° Southeast 177 204 3,100  Level Cleveland Center
09:19PM 41.7333 -82.2303 120° Southeast 172 198 3,100  Level Cleveland Center
09:20PM 41.7133 -82.1769 117° Southeast 172 198 3,100  Level Cleveland Center
09:21PM 41.6872 -82.1014 115° Southeast 175 201 3,100  Level Cleveland Center
09:22PM 41.6692 -82.0592 120° Southeast 175 201 3,100  Level Cleveland Center
09:23PM 41.6428 -82.0003 121° Southeast 180 207 3,100  Level Cleveland Center
09:24PM 41.6203 -81.9469 119° Southeast 179 206 3,100 -300 Level Cleveland Center
09:25PM 41.5961 -81.8769 115° Southeast 183 211 2,600 -600 Descending Cleveland Center
09:26PM 41.5717 -81.8211 120° Southeast 195 224 2,000 -540 Descending Cleveland Center
09:27PM 41.5494 -81.7594 116° Southeast 175 201 1,600 -240 Descending Cleveland Center
09:28PM 41.5397 -81.7067 104° East 138 159 1,600  Level Cleveland Center
09:30PM 41.5175 -81.6833 116° Southeast  Level Estimated
09:37PM 41.5175 -81.6833 116° Southeast  Level Estimated